Time,TemperatureF,DewpointF,PressureIn,WindDirection,WindDirectionDegrees,WindSpeedMPH,WindSpeedGustMPH,Humidity,HourlyPrecipIn,Conditions,Clouds,dailyrainin,SoftwareType,DateUTC
2013-05-02 00:03:00,43.0,41.0,30.52,ESE,116,0.0,0.0,92,0.00,,,0.00,,2013-05-02 04:03:00,
2013-05-02 00:12:00,43.0,41.0,30.52,ESE,116,0.0,0.0,92,0.00,,,0.00,,2013-05-02 04:12:00,
2013-05-02 00:23:00,43.0,41.0,30.53,ESE,116,0.0,0.0,93,0.00,,,0.00,,2013-05-02 04:23:00,
2013-05-02 00:33:00,42.0,40.0,30.52,ESE,115,0.0,0.0,93,0.00,,,0.00,,2013-05-02 04:33:00,
2013-05-02 00:43:00,42.0,40.0,30.52,ESE,115,0.0,0.0,93,0.00,,,0.00,,2013-05-02 04:43:00,
2013-05-02 00:52:00,42.0,40.0,30.52,ESE,116,0.0,0.0,93,0.00,,,0.00,,2013-05-02 04:52:00,
2013-05-02 01:02:00,41.0,39.0,30.52,ESE,115,0.0,0.0,93,0.00,,,0.00,,2013-05-02 05:02:00,
2013-05-02 01:12:00,41.0,39.0,30.52,ESE,115,0.0,0.0,93,0.00,,,0.00,,2013-05-02 05:12:00,
2013-05-02 01:22:00,41.0,39.0,30.52,ESE,115,0.0,0.0,93,0.00,,,0.00,,2013-05-02 05:22:00,
2013-05-02 01:32:00,41.0,39.0,30.52,ESE,115,0.0,0.0,94,0.00,,,0.00,,2013-05-02 05:32:00,
2013-05-02 01:42:00,41.0,39.0,30.52,ESE,115,0.0,0.0,94,0.00,,,0.00,,2013-05-02 05:42:00,
2013-05-02 01:52:00,40.0,38.0,30.51,ESE,116,0.0,0.0,94,0.00,,,0.00,,2013-05-02 05:52:00,
2013-05-02 02:01:00,40.0,38.0,30.51,ESE,115,0.0,0.0,94,0.00,,,0.00,,2013-05-02 06:01:00,
2013-05-02 02:12:00,40.0,38.0,30.51,ESE,115,0.0,0.0,94,0.00,,,0.00,,2013-05-02 06:12:00,
2013-05-02 02:21:00,40.0,39.0,30.50,ESE,116,0.0,0.0,95,0.00,,,0.00,,2013-05-02 06:21:00,
2013-05-02 02:32:00,40.0,39.0,30.50,ESE,116,0.0,0.0,95,0.00,,,0.00,,2013-05-02 06:32:00,
2013-05-02 02:42:00,40.0,39.0,30.50,ESE,116,0.0,0.0,95,0.00,,,0.00,,2013-05-02 06:42:00,
2013-05-02 02:52:00,39.0,37.0,30.50,ESE,116,0.0,0.0,94,0.00,,,0.00,,2013-05-02 06:52:00,
2013-05-02 03:02:00,39.0,38.0,30.49,ESE,116,0.0,0.0,95,0.00,,,0.00,,2013-05-02 07:02:00,
2013-05-02 03:11:00,39.0,38.0,30.49,ESE,116,0.0,0.0,95,0.00,,,0.00,,2013-05-02 07:11:00,
2013-05-02 03:21:00,39.0,38.0,30.49,ESE,116,0.0,0.0,95,0.00,,,0.00,,2013-05-02 07:21:00,
2013-05-02 03:32:00,38.0,37.0,30.48,ESE,115,0.0,0.0,95,0.00,,,0.00,,2013-05-02 07:32:00,
2013-05-02 03:42:00,38.0,37.0,30.48,ESE,116,0.0,0.0,95,0.00,,,0.00,,2013-05-02 07:42:00,
2013-05-02 03:52:00,38.0,37.0,30.48,ESE,116,0.0,0.0,95,0.00,,,0.00,,2013-05-02 07:52:00,
2013-05-02 04:02:00,39.0,38.0,30.49,ESE,116,0.0,0.0,96,0.00,,,0.00,,2013-05-02 08:02:00,
2013-05-02 04:11:00,39.0,38.0,30.49,ESE,116,0.0,0.0,96,0.00,,,0.00,,2013-05-02 08:11:00,
2013-05-02 04:22:00,39.0,38.0,30.48,ESE,116,0.0,0.0,95,0.00,,,0.00,,2013-05-02 08:22:00,
2013-05-02 04:32:00,38.0,37.0,30.48,ESE,115,0.0,0.0,95,0.00,,,0.00,,2013-05-02 08:32:00,
2013-05-02 04:42:00,38.0,37.0,30.48,ESE,115,0.0,0.0,95,0.00,,,0.00,,2013-05-02 08:42:00,
2013-05-02 04:52:00,38.0,37.0,30.48,ESE,116,0.0,0.0,95,0.00,,,0.00,,2013-05-02 08:52:00,
2013-05-02 05:02:00,37.0,36.0,30.49,ESE,116,0.0,0.0,95,0.00,,,0.00,,2013-05-02 09:02:00,
2013-05-02 05:12:00,37.0,36.0,30.49,ESE,116,0.0,0.0,95,0.00,,,0.00,,2013-05-02 09:12:00,
2013-05-02 05:21:00,37.0,36.0,30.49,ESE,116,0.0,0.0,95,0.00,,,0.00,,2013-05-02 09:21:00,
2013-05-02 05:33:00,38.0,37.0,30.49,ESE,115,0.0,0.0,96,0.00,,,0.00,,2013-05-02 09:33:00,
2013-05-02 05:42:00,38.0,37.0,30.49,ESE,115,0.0,0.0,96,0.00,,,0.00,,2013-05-02 09:42:00,
2013-05-02 05:52:00,38.0,37.0,30.49,ESE,115,0.0,0.0,96,0.00,,,0.00,,2013-05-02 09:52:00,
2013-05-02 06:03:00,38.0,37.0,30.49,ESE,115,0.0,0.0,96,0.00,,,0.00,,2013-05-02 10:03:00,
2013-05-02 06:12:00,38.0,37.0,30.49,ESE,115,0.0,0.0,96,0.00,,,0.00,,2013-05-02 10:12:00,
2013-05-02 06:22:00,38.0,37.0,30.50,ESE,115,0.0,0.0,96,0.00,,,0.00,,2013-05-02 10:22:00,
2013-05-02 06:33:00,38.0,37.0,30.50,ESE,115,0.0,0.0,96,0.00,,,0.00,,2013-05-02 10:33:00,
2013-05-02 06:42:00,38.0,37.0,30.50,ESE,115,0.0,0.0,96,0.00,,,0.00,,2013-05-02 10:42:00,
2013-05-02 06:53:00,38.0,37.0,30.49,ESE,116,0.0,0.0,96,0.00,,,0.00,,2013-05-02 10:53:00,
2013-05-02 07:02:00,40.0,39.0,30.49,ESE,115,0.0,0.0,97,0.00,,,0.00,,2013-05-02 11:02:00,
2013-05-02 07:12:00,40.0,39.0,30.49,ESE,115,0.0,0.0,97,0.00,,,0.00,,2013-05-02 11:12:00,
2013-05-02 07:22:00,40.0,39.0,30.49,ESE,115,0.0,0.0,97,0.00,,,0.00,,2013-05-02 11:22:00,
2013-05-02 07:32:00,43.0,42.0,30.50,ESE,115,0.0,0.0,96,0.00,,,0.00,,2013-05-02 11:32:00,
2013-05-02 07:42:00,43.0,42.0,30.50,ESE,115,0.0,0.0,96,0.00,,,0.00,,2013-05-02 11:42:00,
2013-05-02 07:52:00,43.0,42.0,30.50,ESE,115,0.0,0.0,96,0.00,,,0.00,,2013-05-02 11:52:00,
2013-05-02 08:01:00,50.0,47.0,30.50,ESE,115,0.0,0.0,88,0.00,,,0.00,,2013-05-02 12:01:00,
2013-05-02 08:12:00,50.0,47.0,30.50,ESE,115,0.0,0.0,88,0.00,,,0.00,,2013-05-02 12:12:00,
2013-05-02 08:22:00,52.0,47.0,30.51,ESE,115,0.0,0.0,83,0.00,,,0.00,,2013-05-02 12:22:00,
2013-05-02 08:32:00,52.0,47.0,30.51,ESE,115,0.0,0.0,83,0.00,,,0.00,,2013-05-02 12:32:00,
2013-05-02 08:42:00,52.0,47.0,30.51,ESE,115,0.0,0.0,83,0.00,,,0.00,,2013-05-02 12:42:00,
2013-05-02 08:52:00,56.0,47.0,30.50,ESE,102,0.0,0.0,71,0.00,,,0.00,,2013-05-02 12:52:00,
2013-05-02 09:01:00,58.0,46.0,30.49,East,83,0.0,0.0,64,0.00,,,0.00,,2013-05-02 13:01:00,
2013-05-02 09:11:00,58.0,46.0,30.49,East,83,0.0,0.0,64,0.00,,,0.00,,2013-05-02 13:11:00,
2013-05-02 09:21:00,59.0,44.0,30.49,ENE,62,0.0,0.0,58,0.00,,,0.00,,2013-05-02 13:21:00,
2013-05-02 09:32:00,60.0,43.0,30.50,ENE,59,0.0,0.0,54,0.00,,,0.00,,2013-05-02 13:32:00,
2013-05-02 09:42:00,60.0,43.0,30.50,ENE,59,0.0,0.0,54,0.00,,,0.00,,2013-05-02 13:42:00,
2013-05-02 09:52:00,62.0,38.0,30.49,ENE,61,0.0,1.0,41,0.00,,,0.00,,2013-05-02 13:52:00,
2013-05-02 10:02:00,62.0,39.0,30.49,ENE,61,0.0,1.0,42,0.00,,,0.00,,2013-05-02 14:02:00,
2013-05-02 10:11:00,62.0,39.0,30.49,ENE,61,0.0,1.0,42,0.00,,,0.00,,2013-05-02 14:11:00,
2013-05-02 10:22:00,64.0,38.0,30.49,NE,45,0.0,1.0,38,0.00,,,0.00,,2013-05-02 14:22:00,
2013-05-02 10:32:00,64.0,38.0,30.49,SSE,153,0.0,4.0,38,0.00,,,0.00,,2013-05-02 14:32:00,
2013-05-02 10:42:00,64.0,38.0,30.49,SSE,153,0.0,4.0,38,0.00,,,0.00,,2013-05-02 14:42:00,
2013-05-02 10:52:00,64.0,39.0,30.50,SE,145,3.0,4.0,39,0.00,,,0.00,,2013-05-02 14:52:00,
2013-05-02 11:02:00,64.0,39.0,30.50,SE,145,3.0,4.0,39,0.00,,,0.00,,2013-05-02 15:02:00,
2013-05-02 11:12:00,64.0,39.0,30.50,SE,145,3.0,4.0,39,0.00,,,0.00,,2013-05-02 15:12:00,
2013-05-02 11:22:00,63.0,40.0,30.50,SE,142,8.0,8.0,43,0.00,,,0.00,,2013-05-02 15:22:00,
2013-05-02 11:33:00,61.0,41.0,30.50,SSW,201,4.0,7.0,47,0.00,,,0.00,,2013-05-02 15:33:00,
2013-05-02 11:43:00,61.0,41.0,30.50,SSW,201,4.0,7.0,47,0.00,,,0.00,,2013-05-02 15:43:00,
2013-05-02 12:03:00,61.0,41.0,30.49,SSW,201,5.0,7.0,47,0.00,,,0.00,,2013-05-02 16:03:00,
2013-05-02 12:13:00,61.0,41.0,30.49,SSW,201,5.0,7.0,47,0.00,,,0.00,,2013-05-02 16:13:00,
2013-05-02 12:22:00,61.0,43.0,30.48,WSW,238,9.0,9.0,51,0.00,,,0.00,,2013-05-02 16:22:00,
2013-05-02 12:32:00,62.0,44.0,30.47,SSE,154,4.0,0.0,52,0.00,,,0.00,,2013-05-02 16:32:00,
2013-05-02 12:43:00,60.0,45.0,30.47,WSW,245,7.0,0.0,57,0.00,,,0.00,,2013-05-02 16:43:00,
2013-05-02 12:52:00,60.0,45.0,30.47,WSW,245,7.0,0.0,57,0.00,,,0.00,,2013-05-02 16:52:00,
2013-05-02 13:02:00,60.0,45.0,30.47,WSW,245,7.0,0.0,57,0.00,,,0.00,,2013-05-02 17:02:00,
2013-05-02 13:12:00,60.0,47.0,30.47,SW,217,8.0,0.0,61,0.00,,,0.00,,2013-05-02 17:12:00,
2013-05-02 13:22:00,60.0,47.0,30.47,SW,217,8.0,0.0,61,0.00,,,0.00,,2013-05-02 17:22:00,
2013-05-02 13:32:00,61.0,43.0,30.47,WSW,245,3.0,8.0,51,0.00,,,0.00,,2013-05-02 17:32:00,
2013-05-02 13:42:00,61.0,43.0,30.47,WSW,245,3.0,8.0,51,0.00,,,0.00,,2013-05-02 17:42:00,
2013-05-02 13:52:00,61.0,42.0,30.46,South,185,0.0,8.0,49,0.00,,,0.00,,2013-05-02 17:52:00,
2013-05-02 14:01:00,63.0,43.0,30.46,SSE,162,0.0,8.0,48,0.00,,,0.00,,2013-05-02 18:01:00,
2013-05-02 14:11:00,63.0,43.0,30.46,SSE,162,0.0,8.0,48,0.00,,,0.00,,2013-05-02 18:11:00,
2013-05-02 14:22:00,62.0,44.0,30.46,SW,230,6.0,8.0,51,0.00,,,0.00,,2013-05-02 18:22:00,
2013-05-02 14:31:00,61.0,45.0,30.46,SW,219,7.0,9.0,56,0.00,,,0.00,,2013-05-02 18:31:00,
2013-05-02 14:32:00,62.0,44.0,30.46,SW,227,3.0,9.0,51,0.00,,,0.00,,2013-05-02 18:32:00,
2013-05-02 14:42:00,62.0,44.0,30.46,SW,227,3.0,9.0,51,0.00,,,0.00,,2013-05-02 18:42:00,
2013-05-02 14:52:00,61.0,45.0,30.46,SW,219,7.0,9.0,56,0.00,,,0.00,,2013-05-02 18:52:00,
2013-05-02 15:01:00,61.0,45.0,30.46,SW,219,7.0,9.0,56,0.00,,,0.00,,2013-05-02 19:01:00,
2013-05-02 15:11:00,61.0,45.0,30.46,SW,219,7.0,9.0,56,0.00,,,0.00,,2013-05-02 19:11:00,
2013-05-02 15:22:00,61.0,45.0,30.46,SW,219,7.0,9.0,56,0.00,,,0.00,,2013-05-02 19:22:00,
2013-05-02 15:52:00,61.0,48.0,30.44,SW,227,7.0,8.0,62,0.00,,,0.00,,2013-05-02 19:52:00,
2013-05-02 16:02:00,61.0,47.0,30.43,WSW,254,11.0,11.0,61,0.00,,,0.00,,2013-05-02 20:02:00,
2013-05-02 16:11:00,61.0,47.0,30.42,WSW,250,4.0,8.0,59,0.00,,,0.00,,2013-05-02 20:11:00,
2013-05-02 16:22:00,61.0,47.0,30.42,WSW,250,4.0,8.0,59,0.00,,,0.00,,2013-05-02 20:22:00,
2013-05-02 16:32:00,60.0,47.0,30.42,WSW,244,2.0,13.0,61,0.00,,,0.00,,2013-05-02 20:32:00,
2013-05-02 16:42:00,60.0,47.0,30.42,WSW,244,2.0,13.0,61,0.00,,,0.00,,2013-05-02 20:42:00,
2013-05-02 16:52:00,60.0,47.0,30.42,WSW,244,2.0,13.0,61,0.00,,,0.00,,2013-05-02 20:52:00,
2013-05-02 17:01:00,60.0,47.0,30.42,WSW,244,2.0,13.0,61,0.00,,,0.00,,2013-05-02 21:01:00,
2013-05-02 17:12:00,60.0,47.0,30.42,WSW,244,2.0,13.0,61,0.00,,,0.00,,2013-05-02 21:12:00,
2013-05-02 17:21:00,60.0,47.0,30.41,WSW,237,7.0,13.0,61,0.00,,,0.00,,2013-05-02 21:21:00,
2013-05-02 17:33:00,59.0,45.0,30.42,WSW,244,6.0,11.0,59,0.00,,,0.00,,2013-05-02 21:33:00,
2013-05-02 17:42:00,59.0,45.0,30.42,WSW,244,6.0,11.0,59,0.00,,,0.00,,2013-05-02 21:42:00,
2013-05-02 17:53:00,59.0,46.0,30.41,SW,222,5.0,11.0,62,0.00,,,0.00,,2013-05-02 21:53:00,
2013-05-02 18:03:00,59.0,46.0,30.41,SW,222,5.0,11.0,62,0.00,,,0.00,,2013-05-02 22:03:00,
2013-05-02 18:12:00,59.0,46.0,30.41,SW,222,5.0,11.0,62,0.00,,,0.00,,2013-05-02 22:12:00,
2013-05-02 18:22:00,60.0,42.0,30.42,SSW,200,0.0,11.0,51,0.00,,,0.00,,2013-05-02 22:22:00,
2013-05-02 18:32:00,60.0,41.0,30.42,SW,224,4.0,4.0,50,0.00,,,0.00,,2013-05-02 22:32:00,
2013-05-02 18:42:00,60.0,41.0,30.42,SW,224,4.0,4.0,50,0.00,,,0.00,,2013-05-02 22:42:00,
2013-05-02 18:52:00,60.0,41.0,30.41,SSW,206,1.0,3.0,50,0.00,,,0.00,,2013-05-02 22:52:00,
2013-05-02 19:02:00,60.0,41.0,30.41,SSW,206,1.0,3.0,50,0.00,,,0.00,,2013-05-02 23:02:00,
2013-05-02 19:11:00,60.0,41.0,30.41,SSW,206,1.0,3.0,50,0.00,,,0.00,,2013-05-02 23:11:00,
2013-05-02 19:22:00,59.0,43.0,30.42,SW,219,0.0,3.0,56,0.00,,,0.00,,2013-05-02 23:22:00,
2013-05-02 19:32:00,58.0,43.0,30.43,SW,214,0.0,0.0,58,0.00,,,0.00,,2013-05-02 23:32:00,
2013-05-02 19:42:00,58.0,43.0,30.43,SW,214,0.0,0.0,58,0.00,,,0.00,,2013-05-02 23:42:00,
2013-05-02 19:52:00,58.0,43.0,30.43,SW,214,0.0,0.0,58,0.00,,,0.00,,2013-05-02 23:52:00,
2013-05-02 20:01:00,57.0,45.0,30.43,SSW,210,0.0,0.0,63,0.00,,,0.00,,2013-05-03 00:01:00,
2013-05-02 20:11:00,56.0,44.0,30.43,SSW,204,0.0,0.0,64,0.00,,,0.00,,2013-05-03 00:11:00,
2013-05-02 20:22:00,56.0,44.0,30.43,SSW,204,0.0,0.0,64,0.00,,,0.00,,2013-05-03 00:22:00,
2013-05-02 20:32:00,56.0,44.0,30.43,SSW,204,0.0,0.0,64,0.00,,,0.00,,2013-05-03 00:32:00,
2013-05-02 20:42:00,56.0,44.0,30.43,SSW,204,0.0,0.0,64,0.00,,,0.00,,2013-05-03 00:42:00,
2013-05-02 21:21:00,-58.0,-58.0,-100.00,NNE,18,32.0,0.0,100,0.00,,,0.00,,2013-05-03 01:21:00,
2013-05-02 21:32:00,-58.0,-58.0,-100.00,NNE,18,32.0,0.0,100,0.00,,,0.00,,2013-05-03 01:32:00,
2013-05-02 21:42:00,-58.0,-58.0,-100.00,NNE,18,32.0,0.0,100,0.00,,,0.00,,2013-05-03 01:42:00,
2013-05-02 21:52:00,-58.0,-58.0,-100.00,NNE,18,32.0,0.0,100,0.00,,,0.00,,2013-05-03 01:52:00,
2013-05-02 22:01:00,-58.0,-58.0,-100.00,NNE,18,32.0,0.0,100,0.00,,,0.00,,2013-05-03 02:01:00,
2013-05-02 22:11:00,-58.0,-58.0,-100.00,NNE,18,32.0,0.0,100,0.00,,,0.00,,2013-05-03 02:11:00,
2013-05-02 22:22:00,-58.0,-58.0,-100.00,NNE,18,32.0,0.0,100,0.00,,,0.00,,2013-05-03 02:22:00,
2013-05-02 22:32:00,-58.0,-58.0,-100.00,NNE,18,32.0,0.0,100,0.00,,,0.00,,2013-05-03 02:32:00,
2013-05-02 22:42:00,-58.0,-58.0,-100.00,NNE,18,32.0,0.0,100,0.00,,,0.00,,2013-05-03 02:42:00,
2013-05-02 22:52:00,-58.0,-58.0,-100.00,NNE,18,32.0,0.0,100,0.00,,,0.00,,2013-05-03 02:52:00,
2013-05-02 23:01:00,-58.0,-58.0,-100.00,NNE,18,32.0,0.0,100,0.00,,,0.00,,2013-05-03 03:01:00,
2013-05-02 23:11:00,-58.0,-58.0,-100.00,NNE,18,32.0,0.0,100,0.00,,,0.00,,2013-05-03 03:11:00,
2013-05-02 23:21:00,-58.0,-58.0,-100.00,NNE,18,32.0,0.0,100,0.00,,,0.00,,2013-05-03 03:21:00,
2013-05-02 23:33:00,-58.0,-58.0,-100.00,NNE,18,32.0,0.0,100,0.00,,,0.00,,2013-05-03 03:33:00,
2013-05-02 23:42:00,-58.0,-58.0,-100.00,NNE,18,32.0,0.0,100,0.00,,,0.00,,2013-05-03 03:42:00,
2013-05-02 23:52:00,-58.0,-58.0,-100.00,NNE,18,32.0,0.0,100,0.00,,,0.00,,2013-05-03 03:52:00,